createdAt,value
2023-04-25T00:00:41.274Z,8.32
2023-04-25T00:03:15.049Z,8.30
2023-04-25T00:05:47.800Z,8.28
2023-04-25T00:08:17.953Z,8.29
2023-04-25T00:10:55.237Z,8.25
2023-04-25T00:13:29.212Z,8.15
2023-04-25T00:16:07.726Z,8.17
2023-04-25T00:18:40.863Z,8.13
2023-04-25T00:21:12.973Z,8.20
2023-04-25T00:23:46.809Z,8.26
2023-04-25T00:26:17.332Z,8.27
2023-04-25T00:28:47.519Z,8.25
2023-04-25T00:31:20.362Z,8.30
2023-04-25T00:33:53.270Z,8.31
2023-04-25T00:36:35.647Z,8.11
2023-04-25T00:39:08.212Z,8.28
2023-04-25T00:41:38.800Z,8.16
2023-04-25T00:44:12.416Z,8.25
2023-04-25T00:46:46.307Z,8.24
2023-04-25T00:49:33.800Z,8.20
2023-04-25T00:52:10.643Z,8.18
2023-04-25T00:54:41.314Z,8.20
2023-04-25T00:57:11.866Z,8.27
2023-04-25T00:59:49.139Z,8.30
2023-04-25T01:02:21.825Z,8.29
2023-04-25T01:04:54.456Z,8.30
2023-04-25T01:07:26.975Z,8.27
2023-04-25T01:10:00.858Z,8.26
2023-04-25T01:12:32.012Z,8.24
2023-04-25T01:15:04.674Z,8.17
2023-04-25T01:17:35.727Z,8.24
2023-04-25T01:20:11.944Z,8.23
2023-04-25T01:22:45.335Z,8.19
2023-04-25T01:25:19.248Z,8.20
2023-04-25T01:27:51.038Z,8.24
2023-04-25T01:30:21.766Z,8.18
2023-04-25T01:33:00.173Z,8.18
2023-04-25T01:35:32.856Z,8.20
2023-04-25T01:38:07.672Z,8.18
2023-04-25T01:40:45.285Z,8.16
2023-04-25T01:43:15.883Z,8.20
2023-04-25T01:45:46.869Z,8.10
2023-04-25T01:48:19.322Z,8.19
2023-04-25T01:50:50.763Z,8.11
2023-04-25T01:53:24.151Z,8.14
2023-04-25T01:55:56.869Z,8.12
2023-04-25T01:58:29.103Z,8.18
2023-04-25T02:01:19.946Z,8.13
2023-04-25T02:04:07.564Z,8.14
2023-04-25T02:06:40.550Z,8.15
2023-04-25T02:09:13.960Z,7.98
2023-04-25T02:11:53.212Z,8.02
2023-04-25T02:14:30.554Z,7.92
2023-04-25T02:17:17.783Z,7.87
2023-04-25T02:19:48.993Z,7.76
2023-04-25T02:22:19.273Z,7.72
2023-04-25T02:24:54.795Z,7.74
2023-04-25T02:27:25.668Z,7.76
2023-04-25T02:29:56.809Z,7.76
2023-04-25T02:32:27.042Z,7.72
2023-04-25T02:34:59.914Z,7.74
2023-04-25T02:37:30.896Z,7.76
2023-04-25T02:40:05.178Z,7.72
2023-04-25T02:42:35.626Z,7.71
2023-04-25T02:45:06.043Z,7.71
2023-04-25T02:47:36.143Z,7.70
2023-04-25T02:50:07.217Z,7.71
2023-04-25T02:52:37.657Z,7.69
2023-04-25T02:55:24.759Z,7.67
2023-04-25T02:57:59.186Z,7.66
2023-04-25T03:00:40.650Z,7.68
2023-04-25T03:03:10.863Z,7.68
2023-04-25T03:05:44.442Z,7.73
2023-04-25T03:08:14.631Z,7.72
2023-04-25T03:10:47.291Z,7.71
2023-04-25T03:13:22.084Z,7.63
2023-04-25T03:15:52.798Z,7.62
2023-04-25T03:18:23.671Z,7.57
2023-04-25T03:20:54.734Z,7.55
2023-04-25T03:23:24.774Z,7.61
2023-04-25T03:26:00.499Z,7.68
2023-04-25T03:28:31.583Z,7.66
2023-04-25T03:31:03.925Z,7.64
2023-04-25T03:33:34.113Z,7.70
2023-04-25T03:36:04.188Z,7.68
2023-04-25T03:38:34.154Z,7.68
2023-04-25T03:41:08.005Z,7.66
2023-04-25T03:43:45.388Z,7.66
2023-04-25T03:46:18.350Z,7.65
2023-04-25T03:48:48.843Z,7.62
2023-04-25T03:51:28.244Z,7.61
2023-04-25T03:54:00.628Z,7.58
2023-04-25T03:57:00.442Z,7.55
2023-04-25T03:59:39.333Z,7.54
2023-04-25T04:02:10.996Z,7.51
2023-04-25T04:04:41.722Z,7.46
2023-04-25T04:07:13.675Z,7.45
2023-04-25T04:09:45.998Z,7.47
2023-04-25T04:12:24.572Z,7.46
2023-04-25T04:14:54.544Z,7.44
2023-04-25T04:17:27.424Z,7.45
2023-04-25T04:20:00.151Z,7.46
2023-04-25T04:22:40.544Z,7.45
2023-04-25T04:25:14.382Z,7.51
2023-04-25T04:28:07.228Z,7.51
2023-04-25T04:30:54.313Z,7.50
2023-04-25T04:33:24.705Z,7.50
2023-04-25T04:36:20.980Z,7.50
2023-04-25T04:38:57.574Z,7.51
2023-04-25T04:41:41.922Z,7.56
2023-04-25T04:44:18.601Z,7.55
2023-04-25T04:47:07.681Z,7.62
2023-04-25T04:49:52.923Z,7.67
2023-04-25T04:52:42.435Z,7.72
2023-04-25T04:55:44.981Z,7.73
2023-04-25T04:58:50.816Z,7.72
2023-04-25T05:01:42.458Z,7.75
2023-04-25T05:04:28.426Z,7.78
2023-04-25T05:06:58.560Z,7.83
2023-04-25T05:09:56.075Z,7.73
2023-04-25T05:12:46.431Z,7.78
2023-04-25T05:15:27.552Z,7.84
2023-04-25T05:18:18.714Z,7.83
2023-04-25T05:20:54.524Z,7.86
2023-04-25T05:23:44.874Z,8.09
2023-04-25T05:26:35.193Z,8.18
2023-04-25T05:29:31.341Z,8.28
2023-04-25T05:32:13.037Z,8.52
2023-04-25T05:34:47.486Z,9.00
2023-04-25T05:37:26.926Z,10.29
2023-04-25T05:40:01.273Z,11.11
2023-04-25T05:42:51.860Z,10.63
2023-04-25T05:45:40.098Z,10.33
2023-04-25T05:48:31.223Z,9.66
2023-04-25T05:51:15.896Z,9.34
2023-04-25T05:54:10.104Z,9.15
2023-04-25T05:56:43.233Z,9.27
2023-04-25T05:59:14.371Z,9.60
2023-04-25T06:01:44.538Z,9.60
2023-04-25T06:04:14.950Z,9.34
2023-04-25T06:06:48.336Z,9.21
2023-04-25T06:09:23.635Z,9.15
2023-04-25T06:11:53.785Z,9.12
2023-04-25T06:14:25.696Z,9.08
2023-04-25T06:16:57.168Z,8.97
2023-04-25T06:19:30.119Z,8.87
2023-04-25T06:22:03.445Z,8.91
2023-04-25T06:24:42.333Z,8.91
2023-04-25T06:27:17.098Z,9.03
2023-04-25T06:29:47.903Z,9.11
2023-04-25T06:32:22.263Z,9.13
2023-04-25T06:34:52.632Z,9.19
2023-04-25T06:37:25.496Z,9.28
2023-04-25T06:39:58.063Z,9.44
2023-04-25T06:42:28.243Z,9.50
2023-04-25T06:45:02.768Z,9.42
2023-04-25T06:47:34.388Z,9.44
2023-04-25T06:50:13.086Z,9.55
2023-04-25T06:52:46.312Z,9.56
2023-04-25T06:55:16.670Z,9.52
2023-04-25T06:58:05.138Z,9.75
2023-04-25T07:00:53.791Z,9.82
2023-04-25T07:03:27.064Z,9.66
2023-04-25T07:06:02.566Z,9.90
2023-04-25T07:08:35.832Z,10.02
2023-04-25T07:11:07.091Z,9.85
2023-04-25T07:13:37.662Z,9.63
2023-04-25T07:16:08.765Z,9.37
2023-04-25T07:18:40.383Z,9.32
2023-04-25T07:21:11.177Z,9.47
2023-04-25T07:23:45.630Z,9.32
2023-04-25T07:26:22.847Z,9.31
2023-04-25T07:29:15.218Z,9.27
2023-04-25T07:31:45.766Z,9.34
2023-04-25T07:34:16.995Z,9.49
2023-04-25T07:36:48.457Z,9.51
2023-04-25T07:39:21.655Z,9.52
2023-04-25T07:41:54.443Z,9.57
2023-04-25T07:44:32.878Z,9.56
2023-04-25T07:47:08.440Z,9.61
2023-04-25T07:49:40.003Z,9.74
2023-04-25T07:52:12.274Z,9.83
2023-04-25T07:54:49.708Z,9.99
2023-04-25T07:57:25.522Z,9.85
2023-04-25T07:59:58.074Z,9.87
2023-04-25T08:02:29.647Z,9.99
2023-04-25T08:05:01.350Z,10.12
2023-04-25T08:07:33.078Z,10.05
2023-04-25T08:10:11.888Z,10.02
2023-04-25T08:12:42.509Z,10.42
2023-04-25T08:15:15.068Z,10.51
2023-04-25T08:17:48.133Z,10.42
2023-04-25T08:20:19.072Z,10.39
2023-04-25T08:22:50.073Z,10.28
2023-04-25T08:25:51.404Z,10.02
2023-04-25T08:28:27.460Z,9.85
2023-04-25T08:31:12.254Z,9.95
2023-04-25T08:33:53.765Z,10.19
2023-04-25T08:36:43.199Z,10.28
2023-04-25T08:39:37.258Z,10.39
2023-04-25T08:42:31.730Z,10.71
2023-04-25T08:45:07.085Z,10.72
2023-04-25T08:47:43.193Z,10.63
2023-04-25T08:50:16.189Z,10.31
2023-04-25T08:52:49.311Z,10.35
2023-04-25T08:55:22.294Z,10.29
2023-04-25T08:58:00.811Z,10.32
2023-04-25T09:00:34.577Z,10.51
2023-04-25T09:03:06.108Z,10.46
2023-04-25T09:05:39.449Z,10.40
2023-04-25T09:08:12.312Z,10.40
2023-04-25T09:10:42.812Z,10.09
2023-04-25T09:13:18.907Z,9.99
2023-04-25T09:16:08.578Z,9.93
2023-04-25T09:19:01.302Z,9.96
2023-04-25T09:21:35.052Z,10.01
2023-04-25T09:24:05.772Z,10.07
2023-04-25T09:26:35.987Z,10.16
2023-04-25T09:29:13.511Z,10.18
2023-04-25T09:31:45.995Z,10.26
2023-04-25T09:34:18.207Z,10.35
2023-04-25T09:36:58.580Z,10.49
2023-04-25T09:39:48.723Z,10.67
2023-04-25T09:42:20.996Z,10.66
2023-04-25T09:44:56.109Z,10.72
2023-04-25T09:47:29.365Z,10.76
2023-04-25T09:50:08.397Z,10.64
2023-04-25T09:52:45.814Z,10.81
2023-04-25T09:55:31.602Z,10.93
2023-04-25T09:58:07.802Z,11.25
2023-04-25T10:00:42.552Z,11.42
2023-04-25T10:03:29.607Z,11.10
2023-04-25T10:06:13.836Z,10.98
2023-04-25T10:08:44.597Z,11.22
2023-04-25T10:11:17.046Z,11.29
2023-04-25T10:13:49.758Z,11.18
2023-04-25T10:16:23.370Z,11.21
2023-04-25T10:18:54.847Z,11.04
2023-04-25T10:21:28.190Z,10.68
2023-04-25T10:24:04.075Z,10.70
2023-04-25T10:26:37.244Z,10.59
2023-04-25T10:29:07.958Z,10.68
2023-04-25T10:31:49.614Z,10.79
2023-04-25T10:34:20.631Z,10.97
2023-04-25T10:36:55.564Z,10.93
2023-04-25T10:39:27.803Z,10.95
2023-04-25T10:42:02.101Z,11.21
2023-04-25T10:44:33.060Z,11.10
2023-04-25T10:47:06.974Z,11.00
2023-04-25T10:49:38.429Z,11.00
2023-04-25T10:52:18.755Z,11.13
2023-04-25T10:54:52.976Z,11.31
2023-04-25T10:57:40.004Z,11.35
2023-04-25T11:00:18.979Z,11.46
2023-04-25T11:02:55.299Z,11.34
2023-04-25T11:05:51.020Z,11.17
2023-04-25T11:08:41.067Z,11.31
2023-04-25T11:11:12.441Z,11.44
2023-04-25T11:13:42.672Z,11.45
2023-04-25T11:16:13.609Z,11.32
2023-04-25T11:18:58.604Z,11.27
2023-04-25T11:21:29.912Z,11.71
2023-04-25T11:24:00.753Z,11.95
2023-04-25T11:26:31.537Z,11.98
2023-04-25T11:29:03.148Z,11.68
2023-04-25T11:31:33.885Z,11.36
2023-04-25T11:34:08.888Z,11.11
2023-04-25T11:36:42.512Z,10.75
2023-04-25T11:39:12.638Z,10.48
2023-04-25T11:41:44.768Z,10.14
2023-04-25T11:44:19.139Z,9.71
2023-04-25T11:46:49.930Z,9.49
2023-04-25T11:49:23.355Z,9.29
2023-04-25T11:51:53.476Z,9.18
2023-04-25T11:54:23.767Z,9.36
2023-04-25T11:56:54.080Z,9.60
2023-04-25T11:59:28.391Z,9.98
2023-04-25T12:01:58.949Z,10.24
2023-04-25T12:04:39.693Z,10.42
2023-04-25T12:07:14.056Z,10.59
2023-04-25T12:09:44.302Z,10.87
2023-04-25T12:12:15.083Z,10.93
2023-04-25T12:14:52.444Z,11.02
2023-04-25T12:17:26.617Z,11.05
2023-04-25T12:20:01.024Z,10.88
2023-04-25T12:22:33.212Z,10.91
2023-04-25T12:25:05.170Z,11.05
2023-04-25T12:27:37.156Z,11.32
2023-04-25T12:30:08.279Z,11.56
2023-04-25T12:32:39.506Z,11.70
2023-04-25T12:35:12.696Z,11.52
2023-04-25T12:37:42.806Z,11.32
2023-04-25T12:40:15.394Z,10.98
2023-04-25T12:42:45.485Z,10.32
2023-04-25T12:45:15.641Z,10.17
2023-04-25T12:47:46.227Z,10.00
2023-04-25T12:50:25.271Z,9.90
2023-04-25T12:52:55.451Z,10.06
2023-04-25T12:55:25.560Z,10.07
2023-04-25T12:57:55.841Z,10.08
2023-04-25T13:00:26.036Z,10.09
2023-04-25T13:02:56.811Z,10.02
2023-04-25T13:05:29.984Z,10.15
2023-04-25T13:08:00.582Z,10.17
2023-04-25T13:10:30.804Z,10.04
2023-04-25T13:13:00.874Z,9.93
2023-04-25T13:15:38.692Z,9.83
2023-04-25T13:18:09.554Z,9.66
2023-04-25T13:20:45.168Z,9.53
2023-04-25T13:23:15.223Z,9.37
2023-04-25T13:25:45.507Z,9.33
2023-04-25T13:28:15.938Z,9.24
2023-04-25T13:30:46.785Z,9.28
2023-04-25T13:33:17.061Z,9.42
2023-04-25T13:35:54.869Z,9.71
2023-04-25T13:38:26.004Z,10.03
2023-04-25T13:40:58.960Z,10.21
2023-04-25T13:43:29.078Z,10.63
2023-04-25T13:46:00.292Z,10.96
2023-04-25T13:48:30.617Z,11.36
2023-04-25T13:51:04.715Z,11.42
2023-04-25T13:53:36.045Z,11.10
2023-04-25T13:56:09.766Z,10.70
2023-04-25T13:58:40.119Z,9.88
2023-04-25T14:01:12.394Z,9.09
2023-04-25T14:03:43.360Z,8.67
2023-04-25T14:06:26.935Z,8.53
2023-04-25T14:08:58.006Z,8.60
2023-04-25T14:11:31.164Z,9.01
2023-04-25T14:14:01.296Z,9.31
2023-04-25T14:16:32.893Z,9.77
2023-04-25T14:19:03.123Z,10.12
2023-04-25T14:21:36.849Z,10.39
2023-04-25T14:24:08.790Z,10.60
2023-04-25T14:26:43.679Z,10.67
2023-04-25T14:29:14.165Z,10.63
2023-04-25T14:31:44.610Z,10.77
2023-04-25T14:34:14.918Z,10.58
2023-04-25T14:36:47.695Z,10.77
2023-04-25T14:39:19.527Z,10.72
2023-04-25T14:41:49.770Z,10.71
2023-04-25T14:44:21.572Z,10.66
2023-04-25T14:46:55.485Z,10.82
2023-04-25T14:49:25.691Z,10.94
2023-04-25T14:52:01.216Z,11.00
2023-04-25T14:54:31.343Z,10.98
2023-04-25T14:57:05.280Z,10.91
2023-04-25T14:59:36.643Z,10.88
2023-04-25T15:02:07.053Z,10.58
2023-04-25T15:04:37.599Z,10.22
2023-04-25T15:07:12.907Z,10.21
2023-04-25T15:09:43.424Z,10.06
2023-04-25T15:12:14.197Z,9.77
2023-04-25T15:14:44.481Z,9.51
2023-04-25T15:17:18.742Z,9.10
2023-04-25T15:19:48.834Z,8.82
2023-04-25T15:22:31.021Z,8.75
2023-04-25T15:25:01.315Z,8.97
2023-04-25T15:27:32.202Z,9.28
2023-04-25T15:30:02.514Z,9.63
2023-04-25T15:32:34.460Z,9.97
2023-04-25T15:35:07.674Z,10.18
2023-04-25T15:37:41.579Z,10.32
2023-04-25T15:40:14.877Z,10.40
2023-04-25T15:42:48.147Z,10.21
2023-04-25T15:45:19.114Z,9.84
2023-04-25T15:47:49.516Z,10.07
2023-04-25T15:50:20.126Z,10.09
2023-04-25T15:52:53.706Z,9.94
2023-04-25T15:55:30.151Z,10.12
2023-04-25T15:58:02.601Z,10.07
2023-04-25T16:00:35.223Z,9.92
2023-04-25T16:03:08.068Z,9.40
2023-04-25T16:05:41.230Z,8.80
2023-04-25T16:08:14.087Z,8.63
2023-04-25T16:10:44.577Z,8.68
2023-04-25T16:13:17.651Z,8.83
2023-04-25T16:15:47.749Z,9.03
2023-04-25T16:18:18.181Z,8.74
2023-04-25T16:20:48.448Z,8.88
2023-04-25T16:23:21.977Z,8.84
2023-04-25T16:25:55.057Z,8.88
2023-04-25T16:28:26.323Z,8.96
2023-04-25T16:30:56.594Z,9.08
2023-04-25T16:33:26.982Z,9.13
2023-04-25T16:35:57.502Z,9.18
2023-04-25T16:38:31.020Z,9.12
2023-04-25T16:41:05.626Z,9.06
2023-04-25T16:43:36.635Z,9.01
2023-04-25T16:46:06.962Z,9.07
2023-04-25T16:48:37.179Z,9.09
2023-04-25T16:51:07.707Z,9.15
2023-04-25T16:53:42.739Z,9.17
2023-04-25T16:56:13.540Z,9.22
2023-04-25T16:58:45.229Z,9.22
2023-04-25T17:01:17.512Z,8.98
2023-04-25T17:03:53.554Z,8.58
2023-04-25T17:06:24.483Z,8.55
2023-04-25T17:08:57.669Z,8.54
2023-04-25T17:11:29.969Z,8.60
2023-04-25T17:14:02.893Z,8.56
2023-04-25T17:16:39.409Z,8.50
2023-04-25T17:19:12.794Z,8.51
2023-04-25T17:21:42.848Z,8.56
2023-04-25T17:24:16.555Z,8.57
2023-04-25T17:26:48.714Z,8.71
2023-04-25T17:29:19.471Z,8.80
2023-04-25T17:31:51.584Z,8.78
2023-04-25T17:34:22.324Z,8.72
2023-04-25T17:36:54.773Z,8.75
2023-04-25T17:39:27.726Z,8.70
2023-04-25T17:41:59.563Z,8.64
2023-04-25T17:44:34.253Z,8.66
2023-04-25T17:47:05.601Z,8.64
2023-04-25T17:49:38.176Z,8.61
2023-04-25T17:52:08.789Z,8.55
2023-04-25T17:54:41.625Z,8.38
2023-04-25T17:57:19.319Z,8.20
2023-04-25T17:59:56.396Z,8.24
2023-04-25T18:02:29.036Z,8.15
2023-04-25T18:05:01.786Z,8.06
2023-04-25T18:07:35.058Z,8.01
2023-04-25T18:10:09.255Z,7.71
2023-04-25T18:12:39.633Z,7.76
2023-04-25T18:15:13.405Z,7.67
2023-04-25T18:17:43.625Z,7.59
2023-04-25T18:20:16.912Z,7.62
2023-04-25T18:22:48.304Z,7.61
2023-04-25T18:25:24.472Z,7.53
2023-04-25T18:27:54.619Z,7.39
2023-04-25T18:30:32.763Z,7.44
2023-04-25T18:33:02.997Z,7.40
2023-04-25T18:35:33.351Z,7.38
2023-04-25T18:38:04.316Z,7.28
2023-04-25T18:40:50.388Z,7.33
2023-04-25T18:43:27.080Z,7.24
2023-04-25T18:45:59.565Z,7.27
2023-04-25T18:48:33.801Z,7.42
2023-04-25T18:51:04.016Z,7.45
2023-04-25T18:53:34.522Z,7.51
2023-04-25T18:56:07.803Z,7.60
2023-04-25T18:58:38.309Z,7.64
2023-04-25T19:01:09.278Z,7.62
2023-04-25T19:03:40.476Z,7.60
2023-04-25T19:06:14.365Z,7.61
2023-04-25T19:08:44.362Z,7.63
2023-04-25T19:13:50.489Z,7.72
2023-04-25T19:16:22.589Z,7.73
2023-04-25T19:18:54.282Z,7.69
2023-04-25T19:21:24.707Z,7.60
2023-04-25T19:24:07.044Z,7.55
2023-04-25T19:26:42.474Z,7.45
2023-04-25T19:29:14.867Z,7.37
2023-04-25T19:31:47.372Z,7.28
2023-04-25T19:34:17.356Z,7.19
2023-04-25T19:36:47.419Z,7.16
2023-04-25T19:39:17.539Z,7.13
2023-04-25T19:41:52.491Z,7.07
2023-04-25T19:44:26.399Z,7.05
2023-04-25T19:46:56.356Z,7.01
2023-04-25T19:49:27.099Z,6.97
2023-04-25T19:52:00.293Z,6.94
2023-04-25T19:54:30.383Z,6.94
2023-04-25T19:57:04.111Z,6.79
2023-04-25T19:59:41.651Z,6.97
2023-04-25T20:02:11.948Z,7.00
2023-04-25T20:04:42.454Z,7.00
2023-04-25T20:07:12.555Z,7.14
2023-04-25T20:09:45.223Z,7.18
2023-04-25T20:12:25.194Z,7.27
2023-04-25T20:14:56.530Z,7.19
2023-04-25T20:17:26.669Z,7.34
2023-04-25T20:19:56.971Z,7.36
2023-04-25T20:22:36.171Z,7.38
2023-04-25T20:25:07.334Z,7.38
2023-04-25T20:27:41.098Z,7.28
2023-04-25T20:30:13.768Z,7.14
2023-04-25T20:32:46.884Z,6.98
2023-04-25T20:35:17.749Z,6.84
2023-04-25T20:37:47.752Z,6.69
2023-04-25T20:40:17.789Z,6.66
2023-04-25T20:42:51.764Z,6.57
2023-04-25T20:45:23.972Z,6.53
2023-04-25T20:47:54.292Z,6.50
2023-04-25T20:50:24.374Z,6.48
2023-04-25T20:52:54.475Z,6.46
2023-04-25T20:55:25.919Z,6.42
2023-04-25T20:58:02.068Z,6.41
2023-04-25T21:00:32.118Z,6.32
2023-04-25T21:03:03.278Z,6.29
2023-04-25T21:05:33.445Z,6.25
2023-04-25T21:08:04.576Z,6.03
2023-04-25T21:10:37.193Z,6.20
2023-04-25T21:13:10.467Z,6.15
2023-04-25T21:15:40.589Z,6.12
2023-04-25T21:18:13.531Z,6.08
2023-04-25T21:20:44.854Z,6.06
2023-04-25T21:23:14.907Z,6.05
2023-04-25T21:25:49.076Z,6.02
2023-04-25T21:28:21.737Z,5.92
2023-04-25T21:30:52.696Z,5.94
2023-04-25T21:33:22.839Z,5.95
2023-04-25T21:35:53.566Z,5.91
2023-04-25T21:38:24.525Z,5.87
2023-04-25T21:40:55.390Z,5.85
2023-04-25T21:43:29.118Z,5.78
2023-04-25T21:48:35.834Z,5.75
2023-04-25T21:51:08.821Z,5.72
2023-04-25T21:53:40.812Z,5.63
2023-04-25T21:56:12.262Z,5.63
2023-04-25T21:58:44.912Z,5.56
2023-04-25T22:01:16.442Z,5.53
2023-04-25T22:03:46.809Z,5.48
2023-04-25T22:06:17.233Z,5.42
2023-04-25T22:08:47.693Z,5.39
2023-04-25T22:11:18.571Z,5.34
2023-04-25T22:13:51.382Z,5.33
2023-04-25T22:16:22.541Z,5.28
2023-04-25T22:18:53.655Z,5.27
2023-04-25T22:21:25.296Z,5.23
2023-04-25T22:23:56.824Z,5.20
2023-04-25T22:26:27.309Z,5.17
2023-04-25T22:28:59.973Z,5.17
2023-04-25T22:31:35.069Z,5.15
2023-04-25T22:34:07.899Z,5.11
2023-04-25T22:36:41.431Z,4.93
2023-04-25T22:39:11.923Z,4.96
2023-04-25T22:41:42.821Z,5.02
2023-04-25T22:44:15.643Z,5.01
2023-04-25T22:46:45.696Z,4.99
2023-04-25T22:49:15.967Z,4.98
2023-04-25T22:51:54.083Z,4.97
2023-04-25T22:54:24.504Z,4.92
2023-04-25T22:56:54.668Z,4.91
2023-04-25T22:59:29.710Z,4.90
2023-04-25T23:02:00.503Z,4.90
2023-04-25T23:04:32.278Z,4.89
2023-04-25T23:07:02.309Z,4.91
2023-04-25T23:09:32.894Z,4.88
2023-04-25T23:12:07.699Z,4.75
2023-04-25T23:14:40.676Z,4.83
2023-04-25T23:17:11.739Z,4.79
2023-04-25T23:19:42.369Z,4.73
2023-04-25T23:22:16.472Z,4.79
2023-04-25T23:24:46.688Z,4.71
2023-04-25T23:27:16.849Z,4.72
2023-04-25T23:29:56.317Z,4.70
2023-04-25T23:32:36.816Z,4.66
2023-04-25T23:35:08.854Z,4.64
2023-04-25T23:37:40.526Z,4.61
2023-04-25T23:40:12.841Z,4.49
2023-04-25T23:42:43.897Z,4.56
2023-04-25T23:45:17.261Z,4.52
2023-04-25T23:47:50.099Z,4.52
2023-04-25T23:50:32.777Z,4.52
2023-04-25T23:53:02.888Z,4.52
2023-04-25T23:55:33.745Z,4.50
2023-04-25T23:58:04.673Z,4.47
